Time;durP1;ratioP1;P1;durP2;ratioP2;P2;SDS_P1;SDS_P2;PMS_P1;PMS_P2;Temp;Humidity;BMP_temperature;BMP_pressure;BME280_temperature;BME280_humidity;BME280_pressure;Samples;Min_cycle;Max_cycle;Signal;HPM_P1;HPM_P2
2023/03/23 00:01:49;;;;;;;4.18;2.60;;;;;;;;;;4940605;28;20050;-71
2023/03/23 00:04:16;;;;;;;3.58;2.70;;;;;;;;;;4940692;28;20089;-71
2023/03/23 00:06:44;;;;;;;4.13;2.65;;;;;;;;;;4943802;29;20502;-70
2023/03/23 00:09:14;;;;;;;6.30;2.95;;;;;;;;;;4943250;29;20047;-71
2023/03/23 00:11:41;;;;;;;5.50;3.10;;;;;;;;;;4943883;28;20106;-71
2023/03/23 00:14:12;;;;;;;3.60;2.80;;;;;;;;;;4944040;28;20075;-70
2023/03/23 00:16:40;;;;;;;5.70;3.25;;;;;;;;;;4944065;29;20059;-71
2023/03/23 00:19:14;;;;;;;3.90;3.13;;;;;;;;;;4943581;29;20138;-71
2023/03/23 00:21:41;;;;;;;6.25;3.55;;;;;;;;;;4942600;28;20162;-71
2023/03/23 00:24:15;;;;;;;4.97;3.20;;;;;;;;;;4944567;28;20059;-71
2023/03/23 00:26:43;;;;;;;4.57;3.38;;;;;;;;;;4944486;29;20050;-71
2023/03/23 00:29:17;;;;;;;4.55;3.20;;;;;;;;;;4944218;29;20039;-70
2023/03/23 00:31:46;;;;;;;5.60;3.15;;;;;;;;;;4941305;28;20561;-70
2023/03/23 00:34:18;;;;;;;5.03;3.25;;;;;;;;;;4943311;28;20073;-70
2023/03/23 00:36:46;;;;;;;4.03;2.67;;;;;;;;;;4941837;29;20039;-70
2023/03/23 00:39:11;;;;;;;4.35;2.55;;;;;;;;;;4925396;29;20047;-70
2023/03/23 00:41:38;;;;;;;5.47;3.13;;;;;;;;;;4943223;29;20418;-70
2023/03/23 00:44:04;;;;;;;4.75;2.55;;;;;;;;;;4942418;28;20075;-70
2023/03/23 00:46:29;;;;;;;4.18;2.72;;;;;;;;;;4925712;29;20130;-70
2023/03/23 00:48:56;;;;;;;4.25;2.83;;;;;;;;;;4942248;29;20043;-71
2023/03/23 00:51:23;;;;;;;4.70;2.45;;;;;;;;;;4925679;29;20177;-70
2023/03/23 00:53:49;;;;;;;3.53;2.97;;;;;;;;;;4925101;29;20081;-70
2023/03/23 00:56:15;;;;;;;4.90;3.08;;;;;;;;;;4925691;28;20131;-70
2023/03/23 00:58:41;;;;;;;3.35;2.83;;;;;;;;;;4926109;29;20522;-70
2023/03/23 01:01:07;;;;;;;3.70;3.00;;;;;;;;;;4925138;29;20051;-70
2023/03/23 01:03:33;;;;;;;5.43;3.03;;;;;;;;;;4942885;29;20039;-70
2023/03/23 01:06:05;;;;;;;10.13;3.35;;;;;;;;;;4941067;28;20437;-70
2023/03/23 01:08:31;;;;;;;5.05;2.67;;;;;;;;;;4925676;29;20035;-70
2023/03/23 01:11:05;;;;;;;4.05;2.88;;;;;;;;;;4925453;29;20750;-70
2023/03/23 01:13:31;;;;;;;3.45;2.63;;;;;;;;;;4942674;29;20130;-70
2023/03/23 01:15:57;;;;;;;6.55;3.08;;;;;;;;;;4924558;29;20239;-71
2023/03/23 01:18:22;;;;;;;3.10;2.40;;;;;;;;;;4925509;28;20083;-70
2023/03/23 01:20:47;;;;;;;4.07;2.63;;;;;;;;;;4925645;29;20043;-71
2023/03/23 01:23:13;;;;;;;4.03;2.80;;;;;;;;;;4925321;29;20785;-71
2023/03/23 01:25:38;;;;;;;3.45;2.72;;;;;;;;;;4939276;28;20808;-70
2023/03/23 01:28:04;;;;;;;3.95;2.97;;;;;;;;;;4941412;28;20046;-71
2023/03/23 01:30:30;;;;;;;4.03;2.60;;;;;;;;;;4939941;28;20426;-70
2023/03/23 01:32:56;;;;;;;3.00;2.70;;;;;;;;;;4940722;28;20940;-71
2023/03/23 01:35:22;;;;;;;3.63;2.50;;;;;;;;;;4940138;28;20110;-70
2023/03/23 01:37:48;;;;;;;3.42;2.60;;;;;;;;;;4925275;29;20649;-70
2023/03/23 01:40:15;;;;;;;5.78;2.60;;;;;;;;;;4926991;29;20051;-70
2023/03/23 01:42:41;;;;;;;4.45;2.63;;;;;;;;;;4940668;29;20090;-70
2023/03/23 01:45:19;;;;;;;3.40;2.60;;;;;;;;;;4924023;29;20055;-70
2023/03/23 01:47:48;;;;;;;5.80;2.40;;;;;;;;;;4940576;28;20414;-70
2023/03/23 01:50:14;;;;;;;4.43;2.80;;;;;;;;;;4925561;29;20067;-70
2023/03/23 01:52:40;;;;;;;3.53;2.40;;;;;;;;;;4940737;29;20039;-70
2023/03/23 01:55:06;;;;;;;5.35;2.50;;;;;;;;;;4924225;29;20047;-70
2023/03/23 01:57:33;;;;;;;3.35;2.20;;;;;;;;;;4924198;28;20167;-70
2023/03/23 02:00:10;;;;;;;2.25;2.05;;;;;;;;;;4924100;29;20554;-71
2023/03/23 02:02:49;;;;;;;2.45;2.25;;;;;;;;;;4925170;29;20042;-71
2023/03/23 02:05:24;;;;;;;2.83;2.40;;;;;;;;;;4924507;29;20062;-71
2023/03/23 02:07:51;;;;;;;3.90;2.72;;;;;;;;;;4924965;29;20406;-72
2023/03/23 02:10:16;;;;;;;2.80;2.28;;;;;;;;;;4924716;29;20054;-72
2023/03/23 02:12:42;;;;;;;2.80;2.58;;;;;;;;;;4925307;29;20134;-72
2023/03/23 02:15:10;;;;;;;3.33;2.58;;;;;;;;;;4924508;29;20174;-72
2023/03/23 02:17:55;;;;;;;4.75;2.78;;;;;;;;;;4925345;29;20487;-71
2023/03/23 02:20:34;;;;;;;5.53;2.50;;;;;;;;;;4924872;28;20105;-72
2023/03/23 02:23:22;;;;;;;5.20;2.78;;;;;;;;;;4924907;29;20631;-71
2023/03/23 02:25:58;;;;;;;4.88;2.67;;;;;;;;;;4940363;29;20035;-72
2023/03/23 02:28:49;;;;;;;2.97;2.33;;;;;;;;;;4924493;29;20043;-71
2023/03/23 02:31:44;;;;;;;5.53;3.22;;;;;;;;;;4937222;28;21007;-71
2023/03/23 02:34:14;;;;;;;3.00;2.50;;;;;;;;;;4940542;28;20047;-71
2023/03/23 02:37:00;;;;;;;6.90;2.83;;;;;;;;;;4925052;29;20050;-72
2023/03/23 02:39:44;;;;;;;3.05;2.50;;;;;;;;;;4905935;29;20055;-72
2023/03/23 02:42:16;;;;;;;3.03;2.03;;;;;;;;;;4939375;28;20075;-72
2023/03/23 02:44:44;;;;;;;3.75;2.47;;;;;;;;;;4939990;29;20042;-72
2023/03/23 02:47:20;;;;;;;4.40;2.30;;;;;;;;;;4941644;29;20134;-72
2023/03/23 02:49:50;;;;;;;4.88;2.22;;;;;;;;;;4940491;29;20743;-72
2023/03/23 02:52:23;;;;;;;3.65;2.28;;;;;;;;;;4924443;28;20059;-72
2023/03/23 02:54:51;;;;;;;2.83;2.47;;;;;;;;;;4909135;29;20042;-72
2023/03/23 02:57:18;;;;;;;3.42;2.22;;;;;;;;;;4941301;29;20071;-72
2023/03/23 02:59:45;;;;;;;2.95;2.30;;;;;;;;;;4925006;29;20058;-71
2023/03/23 03:02:20;;;;;;;4.80;2.83;;;;;;;;;;4923978;29;20047;-70
2023/03/23 03:05:05;;;;;;;5.43;2.10;;;;;;;;;;4942073;28;20035;-71
2023/03/23 03:07:56;;;;;;;5.60;2.40;;;;;;;;;;4908104;29;20101;-70
2023/03/23 03:10:34;;;;;;;3.80;2.47;;;;;;;;;;4924614;29;20054;-71
2023/03/23 03:12:59;;;;;;;4.95;2.78;;;;;;;;;;4924056;29;20050;-71
2023/03/23 03:15:34;;;;;;;2.58;2.33;;;;;;;;;;4923403;28;20051;-71
2023/03/23 03:18:19;;;;;;;4.18;2.58;;;;;;;;;;4924492;29;21094;-71
2023/03/23 03:20:48;;;;;;;2.95;2.60;;;;;;;;;;4940164;29;20047;-71
2023/03/23 03:23:16;;;;;;;2.67;2.38;;;;;;;;;;4924277;29;20054;-73
2023/03/23 03:25:47;;;;;;;4.32;2.75;;;;;;;;;;4939263;28;20046;-72
2023/03/23 03:28:21;;;;;;;2.58;2.35;;;;;;;;;;4924647;29;20047;-72
2023/03/23 03:30:54;;;;;;;2.70;2.47;;;;;;;;;;4940023;29;20055;-73
2023/03/23 03:33:25;;;;;;;3.60;2.80;;;;;;;;;;4923840;29;20422;-73
2023/03/23 03:35:55;;;;;;;3.58;2.63;;;;;;;;;;4923658;29;20075;-72
2023/03/23 03:38:21;;;;;;;4.03;2.70;;;;;;;;;;4925255;29;20050;-72
2023/03/23 03:40:47;;;;;;;6.60;2.75;;;;;;;;;;4928304;29;20043;-73
2023/03/23 03:43:12;;;;;;;4.10;3.17;;;;;;;;;;4927335;29;20058;-73
2023/03/23 03:45:38;;;;;;;3.95;2.58;;;;;;;;;;4927744;29;20062;-73
2023/03/23 03:48:03;;;;;;;4.68;2.63;;;;;;;;;;4944490;28;20055;-72
2023/03/23 03:50:29;;;;;;;6.50;2.97;;;;;;;;;;4927911;29;20051;-73
2023/03/23 03:52:55;;;;;;;3.78;2.65;;;;;;;;;;4927725;29;20047;-73
2023/03/23 03:55:21;;;;;;;4.57;2.63;;;;;;;;;;4944870;29;20113;-72
2023/03/23 03:57:48;;;;;;;4.38;2.83;;;;;;;;;;4943260;28;20471;-72
2023/03/23 04:00:32;;;;;;;2.80;2.35;;;;;;;;;;4944295;28;20094;-72
2023/03/23 04:02:59;;;;;;;3.78;2.83;;;;;;;;;;4927065;29;20047;-72
2023/03/23 04:05:45;;;;;;;6.13;2.92;;;;;;;;;;4933761;29;20763;-71
2023/03/23 04:08:11;;;;;;;4.28;2.70;;;;;;;;;;4927454;29;20049;-72
2023/03/23 04:10:37;;;;;;;3.28;2.88;;;;;;;;;;4927560;28;20045;-71
2023/03/23 04:13:04;;;;;;;4.90;2.72;;;;;;;;;;4927336;29;20051;-71
2023/03/23 04:15:35;;;;;;;3.53;2.78;;;;;;;;;;4944389;29;20043;-71
2023/03/23 04:18:01;;;;;;;3.22;2.60;;;;;;;;;;4927592;29;20051;-72
2023/03/23 04:20:28;;;;;;;4.10;2.63;;;;;;;;;;4926585;28;20079;-72
2023/03/23 04:22:55;;;;;;;4.65;2.97;;;;;;;;;;4926906;29;20071;-72
2023/03/23 04:25:23;;;;;;;4.60;3.08;;;;;;;;;;4927622;29;20060;-72
2023/03/23 04:27:52;;;;;;;3.30;3.00;;;;;;;;;;4927607;29;20058;-72
2023/03/23 04:30:26;;;;;;;4.90;2.85;;;;;;;;;;4926328;28;20080;-72
2023/03/23 04:33:06;;;;;;;3.20;2.85;;;;;;;;;;4925087;29;20050;-71
2023/03/23 04:35:32;;;;;;;3.05;2.67;;;;;;;;;;4944588;28;20051;-71
2023/03/23 04:38:13;;;;;;;5.10;2.60;;;;;;;;;;4927172;29;20816;-72
2023/03/23 04:40:41;;;;;;;4.38;2.90;;;;;;;;;;4925819;29;20818;-72
2023/03/23 04:43:22;;;;;;;5.35;2.90;;;;;;;;;;4925848;28;20049;-72
2023/03/23 04:45:58;;;;;;;4.85;2.72;;;;;;;;;;4927050;29;20047;-71
2023/03/23 04:48:28;;;;;;;4.28;2.92;;;;;;;;;;4926760;29;20062;-71
2023/03/23 04:51:03;;;;;;;5.05;2.97;;;;;;;;;;4925802;29;20043;-73
2023/03/23 04:53:31;;;;;;;3.00;2.50;;;;;;;;;;4926003;28;20454;-74
2023/03/23 04:55:57;;;;;;;4.05;2.78;;;;;;;;;;4926212;29;20050;-73
2023/03/23 04:58:24;;;;;;;4.00;2.92;;;;;;;;;;4926505;29;20518;-72
2023/03/23 05:01:14;;;;;;;5.53;2.95;;;;;;;;;;4925708;29;20047;-73
2023/03/23 05:03:49;;;;;;;3.65;2.70;;;;;;;;;;4925505;29;20133;-71
2023/03/23 05:06:14;;;;;;;5.35;3.08;;;;;;;;;;4943075;28;20510;-71
2023/03/23 05:08:42;;;;;;;4.07;3.10;;;;;;;;;;4926406;29;20051;-71
2023/03/23 05:11:08;;;;;;;3.75;2.83;;;;;;;;;;4926465;29;20055;-71
2023/03/23 05:13:37;;;;;;;3.58;2.88;;;;;;;;;;4926807;29;20049;-71
2023/03/23 05:16:04;;;;;;;4.05;2.95;;;;;;;;;;4925947;29;20130;-71
2023/03/23 05:18:32;;;;;;;4.22;2.72;;;;;;;;;;4926644;29;20052;-72
2023/03/23 05:21:02;;;;;;;3.75;2.70;;;;;;;;;;4926018;29;20868;-71
2023/03/23 05:23:33;;;;;;;6.63;3.22;;;;;;;;;;4941204;29;20047;-71
2023/03/23 05:26:06;;;;;;;3.08;2.67;;;;;;;;;;4939927;28;20050;-71
2023/03/23 05:28:32;;;;;;;6.40;2.63;;;;;;;;;;4924395;29;20043;-71
2023/03/23 05:31:13;;;;;;;6.25;2.60;;;;;;;;;;4924006;29;20046;-71
2023/03/23 05:33:38;;;;;;;4.30;3.00;;;;;;;;;;4941983;29;20147;-71
2023/03/23 05:36:13;;;;;;;5.78;3.08;;;;;;;;;;4924661;29;20117;-71
2023/03/23 05:38:59;;;;;;;4.13;2.65;;;;;;;;;;4919857;28;20054;-71
2023/03/23 05:41:26;;;;;;;2.97;2.67;;;;;;;;;;4927364;29;20047;-71
2023/03/23 05:43:52;;;;;;;3.00;2.53;;;;;;;;;;4925242;29;20469;-71
2023/03/23 05:46:33;;;;;;;4.28;2.65;;;;;;;;;;4941771;29;20046;-71
2023/03/23 05:49:00;;;;;;;7.78;2.90;;;;;;;;;;4922869;29;20039;-72
2023/03/23 05:51:33;;;;;;;6.93;2.83;;;;;;;;;;4923863;29;20039;-70
2023/03/23 05:53:58;;;;;;;2.80;2.28;;;;;;;;;;4923792;29;20039;-70
2023/03/23 05:56:24;;;;;;;3.58;2.47;;;;;;;;;;4908495;29;20074;-70
2023/03/23 05:59:29;;;;;;;3.65;2.65;;;;;;;;;;4899871;29;20055;-71
2023/03/23 06:01:57;;;;;;;2.97;2.35;;;;;;;;;;4925913;29;20075;-71
2023/03/23 06:04:24;;;;;;;5.00;2.08;;;;;;;;;;4925265;29;20082;-71
2023/03/23 06:07:13;;;;;;;2.72;2.53;;;;;;;;;;4942584;29;20150;-70
2023/03/23 06:09:43;;;;;;;6.97;2.83;;;;;;;;;;4924699;29;20055;-71
2023/03/23 06:12:24;;;;;;;3.22;2.53;;;;;;;;;;4942783;28;20055;-70
2023/03/23 06:15:09;;;;;;;2.83;2.10;;;;;;;;;;4940565;29;20738;-72
2023/03/23 06:18:02;;;;;;;2.80;2.40;;;;;;;;;;4935840;29;20437;-73
2023/03/23 06:20:35;;;;;;;3.78;2.92;;;;;;;;;;4921987;28;20061;-73
2023/03/23 06:23:13;;;;;;;2.63;2.28;;;;;;;;;;4921825;29;20518;-73
2023/03/23 06:25:39;;;;;;;3.10;2.55;;;;;;;;;;4922801;29;20039;-73
2023/03/23 06:28:05;;;;;;;4.28;2.55;;;;;;;;;;4938537;29;20079;-72
2023/03/23 06:30:33;;;;;;;3.72;2.53;;;;;;;;;;4922434;29;20043;-72
2023/03/23 06:32:59;;;;;;;2.60;2.40;;;;;;;;;;4922518;29;20042;-73
2023/03/23 06:35:48;;;;;;;2.67;2.47;;;;;;;;;;4940690;29;20047;-73
2023/03/23 06:38:34;;;;;;;3.22;2.92;;;;;;;;;;4941199;29;20097;-73
2023/03/23 06:40:59;;;;;;;2.40;2.17;;;;;;;;;;4941290;29;20047;-73
2023/03/23 06:43:26;;;;;;;3.03;1.98;;;;;;;;;;4923927;28;20070;-73
2023/03/23 06:46:08;;;;;;;7.55;2.70;;;;;;;;;;4925009;29;20365;-73
2023/03/23 06:48:36;;;;;;;8.13;3.13;;;;;;;;;;4942297;29;20039;-72
2023/03/23 06:51:02;;;;;;;23.50;3.63;;;;;;;;;;4917074;28;20051;-71
2023/03/23 06:53:29;;;;;;;6.25;3.38;;;;;;;;;;4922826;28;20129;-71
2023/03/23 06:55:56;;;;;;;7.55;3.15;;;;;;;;;;4924803;29;20053;-71
2023/03/23 06:58:23;;;;;;;8.00;3.80;;;;;;;;;;4924753;29;20051;-70
2023/03/23 07:00:56;;;;;;;8.65;3.33;;;;;;;;;;4924951;29;20111;-72
2023/03/23 07:03:31;;;;;;;5.97;2.90;;;;;;;;;;4909550;28;20054;-72
2023/03/23 07:05:58;;;;;;;4.43;3.10;;;;;;;;;;4923593;29;20079;-72
2023/03/23 07:08:26;;;;;;;5.20;2.97;;;;;;;;;;4924502;29;20036;-71
2023/03/23 07:10:53;;;;;;;5.40;2.63;;;;;;;;;;4924921;29;20046;-71
2023/03/23 07:13:22;;;;;;;4.25;2.65;;;;;;;;;;4926784;29;20055;-73
2023/03/23 07:15:52;;;;;;;2.80;2.45;;;;;;;;;;4930291;29;20042;-75
2023/03/23 07:18:18;;;;;;;5.10;2.78;;;;;;;;;;4930993;29;20047;-72
2023/03/23 07:20:50;;;;;;;5.70;2.85;;;;;;;;;;4931118;29;20046;-72
2023/03/23 07:23:18;;;;;;;5.13;2.90;;;;;;;;;;4930657;29;20138;-71
2023/03/23 07:25:53;;;;;;;5.25;2.72;;;;;;;;;;4931452;29;20053;-71
2023/03/23 07:28:23;;;;;;;4.95;2.80;;;;;;;;;;4930441;28;20219;-71
2023/03/23 07:30:51;;;;;;;4.15;2.88;;;;;;;;;;4931135;28;20130;-71
2023/03/23 07:33:18;;;;;;;5.47;3.17;;;;;;;;;;4929818;29;20130;-71
2023/03/23 07:35:45;;;;;;;5.95;2.65;;;;;;;;;;4930962;29;20443;-70
2023/03/23 07:38:14;;;;;;;2.70;2.28;;;;;;;;;;4930166;29;20042;-70
2023/03/23 07:40:42;;;;;;;3.75;2.70;;;;;;;;;;4930867;29;20090;-72
2023/03/23 07:43:14;;;;;;;3.33;2.40;;;;;;;;;;4930210;29;20051;-72
2023/03/23 07:45:58;;;;;;;6.63;3.25;;;;;;;;;;4947244;28;20061;-70
2023/03/23 07:48:29;;;;;;;5.68;3.15;;;;;;;;;;4929749;28;20047;-70
2023/03/23 07:50:54;;;;;;;5.47;2.75;;;;;;;;;;4947654;28;20403;-74
2023/03/23 07:53:23;;;;;;;5.53;2.63;;;;;;;;;;4930687;29;20055;-72
2023/03/23 07:55:55;;;;;;;7.85;2.63;;;;;;;;;;4930705;29;20039;-71
2023/03/23 07:58:41;;;;;;;5.15;2.53;;;;;;;;;;4947661;28;20043;-70
2023/03/23 08:01:08;;;;;;;5.35;2.63;;;;;;;;;;4929189;29;20051;-71
2023/03/23 08:03:34;;;;;;;8.48;2.40;;;;;;;;;;4930783;29;20050;-72
2023/03/23 08:06:13;;;;;;;9.05;2.90;;;;;;;;;;4930782;29;20167;-72
2023/03/23 08:08:52;;;;;;;7.40;2.30;;;;;;;;;;4930684;29;20434;-70
2023/03/23 08:11:56;;;;;;;2.35;2.15;;;;;;;;;;4932647;28;20039;-71
2023/03/23 08:14:41;;;;;;;3.13;2.38;;;;;;;;;;4933585;29;20069;-71
2023/03/23 08:17:26;;;;;;;3.78;2.22;;;;;;;;;;4913404;29;20106;-71
2023/03/23 08:20:14;;;;;;;3.60;2.35;;;;;;;;;;4948434;28;20105;-70
2023/03/23 08:22:56;;;;;;;3.00;2.50;;;;;;;;;;4946326;28;20035;-74
2023/03/23 08:25:48;;;;;;;4.68;2.70;;;;;;;;;;4939932;28;20075;-73
2023/03/23 08:28:30;;;;;;;3.00;2.30;;;;;;;;;;4913427;29;20054;-73
2023/03/23 08:31:14;;;;;;;2.30;2.10;;;;;;;;;;4944126;29;20062;-72
2023/03/23 08:33:56;;;;;;;3.78;3.05;;;;;;;;;;4926764;29;20388;-71
2023/03/23 08:36:37;;;;;;;2.97;2.60;;;;;;;;;;4927321;29;20053;-72
2023/03/23 08:39:08;;;;;;;3.50;2.35;;;;;;;;;;4943846;29;20786;-73
2023/03/23 08:41:52;;;;;;;2.70;2.50;;;;;;;;;;4927335;29;20031;-72
2023/03/23 08:44:36;;;;;;;3.47;2.50;;;;;;;;;;4943543;28;20051;-73
2023/03/23 08:47:12;;;;;;;3.25;2.60;;;;;;;;;;4926659;29;20043;-71
2023/03/23 08:49:57;;;;;;;3.20;2.70;;;;;;;;;;4944167;29;20152;-71
2023/03/23 08:52:43;;;;;;;6.13;2.92;;;;;;;;;;4927214;29;20035;-71
2023/03/23 08:55:35;;;;;;;2.55;2.08;;;;;;;;;;4924229;28;20043;-72
2023/03/23 08:58:19;;;;;;;3.20;2.40;;;;;;;;;;4943987;28;20050;-71
2023/03/23 09:01:09;;;;;;;3.28;2.53;;;;;;;;;;4926256;29;20545;-70
2023/03/23 09:03:44;;;;;;;6.40;2.80;;;;;;;;;;4944648;29;20051;-71
2023/03/23 09:06:25;;;;;;;3.28;2.88;;;;;;;;;;4943322;28;20425;-71
2023/03/23 09:08:51;;;;;;;4.32;3.10;;;;;;;;;;4943747;28;20070;-71
2023/03/23 09:11:17;;;;;;;5.55;3.35;;;;;;;;;;4942266;29;20066;-71
2023/03/23 09:13:42;;;;;;;4.20;2.60;;;;;;;;;;4926785;29;20050;-71
2023/03/23 09:16:08;;;;;;;3.00;2.70;;;;;;;;;;4943263;29;20051;-70
2023/03/23 09:18:34;;;;;;;4.25;3.25;;;;;;;;;;4943546;28;20423;-69
2023/03/23 09:21:01;;;;;;;3.78;2.45;;;;;;;;;;4942482;29;20050;-70
2023/03/23 09:23:27;;;;;;;7.20;2.75;;;;;;;;;;4943190;29;20055;-71
2023/03/23 09:25:53;;;;;;;9.38;3.13;;;;;;;;;;4943046;29;20042;-70
2023/03/23 09:28:19;;;;;;;3.58;2.75;;;;;;;;;;4942736;28;20047;-69
2023/03/23 09:30:45;;;;;;;9.80;3.33;;;;;;;;;;4943605;28;20182;-71
2023/03/23 09:33:11;;;;;;;5.60;3.15;;;;;;;;;;4942909;29;20051;-70
2023/03/23 09:35:38;;;;;;;2.90;2.60;;;;;;;;;;4942784;28;20044;-72
2023/03/23 09:38:05;;;;;;;3.20;2.67;;;;;;;;;;4943333;29;20076;-72
2023/03/23 09:40:45;;;;;;;3.47;3.10;;;;;;;;;;4942696;28;20074;-70
2023/03/23 09:43:27;;;;;;;7.10;3.03;;;;;;;;;;4942360;29;20211;-70
2023/03/23 09:45:56;;;;;;;3.45;3.13;;;;;;;;;;4943219;29;20043;-71
2023/03/23 09:48:24;;;;;;;4.18;3.13;;;;;;;;;;4943029;29;20082;-70
2023/03/23 09:50:56;;;;;;;3.65;2.95;;;;;;;;;;4942387;28;20051;-72
2023/03/23 09:53:39;;;;;;;7.30;3.25;;;;;;;;;;4942389;28;20062;-70
2023/03/23 09:56:11;;;;;;;3.88;3.05;;;;;;;;;;4942890;29;20406;-72
2023/03/23 09:58:46;;;;;;;8.35;3.08;;;;;;;;;;4942794;29;20133;-72
2023/03/23 10:01:28;;;;;;;5.72;3.15;;;;;;;;;;4940665;28;20150;-71
2023/03/23 10:04:03;;;;;;;8.60;3.53;;;;;;;;;;4942891;28;20047;-73
2023/03/23 10:06:28;;;;;;;4.03;2.78;;;;;;;;;;4942380;29;20536;-73
2023/03/23 10:08:57;;;;;;;3.10;2.80;;;;;;;;;;4942659;29;20039;-73
2023/03/23 10:11:41;;;;;;;10.43;3.35;;;;;;;;;;4940396;28;20525;-72
2023/03/23 10:14:45;;;;;;;7.88;3.47;;;;;;;;;;4942693;28;20087;-72
2023/03/23 10:17:17;;;;;;;7.68;3.05;;;;;;;;;;4942028;29;20051;-72
2023/03/23 10:19:55;;;;;;;5.22;3.13;;;;;;;;;;4942399;29;20055;-72
2023/03/23 10:22:29;;;;;;;3.72;2.72;;;;;;;;;;4942004;28;20924;-73
2023/03/23 10:25:17;;;;;;;5.13;2.67;;;;;;;;;;4941936;28;20939;-73
2023/03/23 10:27:49;;;;;;;3.22;2.50;;;;;;;;;;4920594;29;20103;-72
2023/03/23 10:30:18;;;;;;;3.45;2.72;;;;;;;;;;4941816;29;20495;-71
2023/03/23 10:32:53;;;;;;;3.08;2.38;;;;;;;;;;4942296;29;20106;-71
2023/03/23 10:35:29;;;;;;;3.25;2.85;;;;;;;;;;4940934;28;20494;-70
2023/03/23 10:38:02;;;;;;;3.10;2.80;;;;;;;;;;4942047;29;20055;-71
2023/03/23 10:40:30;;;;;;;3.10;2.50;;;;;;;;;;4941582;29;20617;-71
2023/03/23 10:42:57;;;;;;;3.08;2.75;;;;;;;;;;4941880;29;20506;-72
2023/03/23 10:45:32;;;;;;;5.63;2.42;;;;;;;;;;4939830;28;20059;-72
2023/03/23 10:48:19;;;;;;;3.95;2.70;;;;;;;;;;4941379;28;20047;-70
2023/03/23 10:50:50;;;;;;;2.65;2.22;;;;;;;;;;4924811;29;20075;-72
2023/03/23 10:53:30;;;;;;;3.17;1.90;;;;;;;;;;4941632;29;20106;-72
2023/03/23 10:55:55;;;;;;;8.88;2.33;;;;;;;;;;4940733;28;20054;-72
2023/03/23 10:58:29;;;;;;;2.75;2.35;;;;;;;;;;4941414;28;20055;-72
2023/03/23 11:00:55;;;;;;;6.63;1.92;;;;;;;;;;4941270;29;20105;-71
2023/03/23 11:03:32;;;;;;;2.72;1.80;;;;;;;;;;4941007;29;20051;-71
2023/03/23 11:06:08;;;;;;;2.10;1.60;;;;;;;;;;4940962;29;20055;-71
2023/03/23 11:08:58;;;;;;;4.47;1.95;;;;;;;;;;4941240;28;20051;-71
2023/03/23 11:11:29;;;;;;;3.42;1.77;;;;;;;;;;4941080;29;20039;-71
2023/03/23 11:14:01;;;;;;;3.70;2.10;;;;;;;;;;4941684;29;20051;-71
2023/03/23 11:16:30;;;;;;;9.52;1.85;;;;;;;;;;4941942;29;20049;-71
2023/03/23 11:18:58;;;;;;;2.03;1.50;;;;;;;;;;4941187;28;20043;-72
2023/03/23 11:21:24;;;;;;;2.40;1.75;;;;;;;;;;4941011;28;20035;-71
2023/03/23 11:23:53;;;;;;;2.50;1.67;;;;;;;;;;4941310;29;20047;-72
2023/03/23 11:26:22;;;;;;;1.85;1.65;;;;;;;;;;4940985;29;20410;-73
2023/03/23 11:29:12;;;;;;;4.32;1.55;;;;;;;;;;4940433;28;20068;-73
2023/03/23 11:31:52;;;;;;;4.18;1.92;;;;;;;;;;4923724;29;20047;-69
2023/03/23 11:34:23;;;;;;;5.05;1.70;;;;;;;;;;4941437;29;20055;-72
2023/03/23 11:36:51;;;;;;;;;;;;;;;;;;4941356;29;20143;-70
2023/03/23 11:39:31;;;;;;;4.38;2.00;;;;;;;;;;4939540;29;19981;-71
2023/03/23 11:41:59;;;;;;;5.30;1.85;;;;;;;;;;4941447;28;20050;-69
2023/03/23 11:44:33;;;;;;;2.65;1.70;;;;;;;;;;4941553;29;20055;-72
2023/03/23 11:47:22;;;;;;;3.35;1.52;;;;;;;;;;4941839;29;20051;-72
2023/03/23 11:50:10;;;;;;;3.38;1.67;;;;;;;;;;4940688;29;20114;-74
2023/03/23 11:52:52;;;;;;;2.03;1.83;;;;;;;;;;4941255;28;20051;-72
2023/03/23 11:55:28;;;;;;;2.58;1.58;;;;;;;;;;4940702;29;20517;-72
2023/03/23 11:57:59;;;;;;;2.72;1.67;;;;;;;;;;4940808;29;20055;-73
2023/03/23 12:00:25;;;;;;;2.53;1.52;;;;;;;;;;4943776;28;20082;-73
2023/03/23 12:03:29;;;;;;;2.78;1.80;;;;;;;;;;4943772;28;20498;-71
2023/03/23 12:06:09;;;;;;;3.50;1.88;;;;;;;;;;4930750;29;20059;-73
2023/03/23 12:08:53;;;;;;;2.33;1.50;;;;;;;;;;4944045;29;20043;-72
2023/03/23 12:11:30;;;;;;;1.90;1.70;;;;;;;;;;4943807;29;20058;-73
2023/03/23 12:14:11;;;;;;;5.22;1.70;;;;;;;;;;4943678;28;20118;-73
2023/03/23 12:16:36;;;;;;;4.97;2.50;;;;;;;;;;4944254;28;20047;-74
2023/03/23 12:19:13;;;;;;;2.80;2.20;;;;;;;;;;4944036;29;20098;-72
2023/03/23 12:21:52;;;;;;;3.30;2.38;;;;;;;;;;4944380;29;20050;-71
2023/03/23 12:24:39;;;;;;;2.33;2.13;;;;;;;;;;4943040;28;20055;-73
2023/03/23 12:27:25;;;;;;;4.93;2.50;;;;;;;;;;4943762;28;20058;-71
2023/03/23 12:29:59;;;;;;;4.00;2.72;;;;;;;;;;4944469;29;20410;-72
2023/03/23 12:32:54;;;;;;;3.85;2.35;;;;;;;;;;4943349;29;20051;-70
2023/03/23 12:36:00;;;;;;;9.10;2.40;;;;;;;;;;4942902;28;20845;-72
2023/03/23 12:38:57;;;;;;;3.65;2.28;;;;;;;;;;4926665;29;20122;-72
2023/03/23 12:41:27;;;;;;;4.78;2.60;;;;;;;;;;4941934;29;20079;-71
2023/03/23 12:44:12;;;;;;;4.15;2.60;;;;;;;;;;4958633;29;20039;-71
2023/03/23 12:46:47;;;;;;;3.78;2.67;;;;;;;;;;4943528;28;20057;-73
2023/03/23 12:49:24;;;;;;;4.22;2.13;;;;;;;;;;4943129;29;20530;-74
2023/03/23 12:51:58;;;;;;;4.10;2.78;;;;;;;;;;4942117;29;20838;-73
2023/03/23 12:55:05;;;;;;;4.32;2.60;;;;;;;;;;4943082;29;20074;-73
2023/03/23 12:57:44;;;;;;;4.70;2.38;;;;;;;;;;4909344;28;20043;-73
2023/03/23 13:00:25;;;;;;;3.47;2.35;;;;;;;;;;4943024;28;20062;-73
2023/03/23 13:03:02;;;;;;;4.30;2.37;;;;;;;;;;4943362;29;20098;-72
2023/03/23 13:05:35;;;;;;;2.97;2.25;;;;;;;;;;4942180;29;20055;-72
2023/03/23 13:08:24;;;;;;;6.15;2.38;;;;;;;;;;4942554;28;20047;-73
2023/03/23 13:10:51;;;;;;;3.35;2.05;;;;;;;;;;4942052;28;20097;-73
2023/03/23 13:14:00;;;;;;;3.55;2.22;;;;;;;;;;4941352;29;20752;-73
2023/03/23 13:16:35;;;;;;;2.83;2.08;;;;;;;;;;4924490;29;20066;-73
2023/03/23 13:19:59;;;;;;;3.38;2.30;;;;;;;;;;4941327;28;20039;-73
2023/03/23 13:22:42;;;;;;;3.78;2.05;;;;;;;;;;4930444;29;20081;-71
2023/03/23 13:25:19;;;;;;;4.30;2.20;;;;;;;;;;4940999;29;20043;-70
2023/03/23 13:28:00;;;;;;;4.07;2.30;;;;;;;;;;4942926;29;20066;-71
2023/03/23 13:30:28;;;;;;;2.88;2.38;;;;;;;;;;4941376;28;20174;-70
2023/03/23 13:33:03;;;;;;;2.83;2.05;;;;;;;;;;4943301;28;20498;-71
2023/03/23 13:35:36;;;;;;;6.10;2.63;;;;;;;;;;4917526;29;20051;-72
2023/03/23 13:38:10;;;;;;;5.40;2.20;;;;;;;;;;4942644;29;20223;-73
2023/03/23 13:40:42;;;;;;;4.40;2.53;;;;;;;;;;4942569;28;20058;-70
2023/03/23 13:43:08;;;;;;;5.88;2.30;;;;;;;;;;4942473;28;20047;-70
2023/03/23 13:45:47;;;;;;;3.38;2.05;;;;;;;;;;4940293;29;20050;-71
2023/03/23 13:48:12;;;;;;;6.40;2.28;;;;;;;;;;4940689;29;20066;-70
2023/03/23 13:50:59;;;;;;;6.18;2.67;;;;;;;;;;4942198;29;20055;-71
2023/03/23 13:53:28;;;;;;;2.53;1.80;;;;;;;;;;4942190;28;20130;-72
2023/03/23 13:56:16;;;;;;;5.78;1.30;;;;;;;;;;4942628;29;21500;-72
2023/03/23 13:58:48;;;;;;;1.50;1.33;;;;;;;;;;4941528;29;20075;-72
2023/03/23 14:01:17;;;;;;;6.93;1.30;;;;;;;;;;4940723;29;20246;-73
2023/03/23 14:03:50;;;;;;;4.32;1.30;;;;;;;;;;4937105;28;20079;-73
2023/03/23 14:06:20;;;;;;;2.33;1.40;;;;;;;;;;4942107;28;20134;-72
2023/03/23 14:09:12;;;;;;;3.28;1.15;;;;;;;;;;4924140;29;20050;-72
2023/03/23 14:12:08;;;;;;;2.28;1.33;;;;;;;;;;4943107;29;20054;-72
2023/03/23 14:18:25;;;;;;;1.20;1.10;;;;;;;;;;4944357;29;20054;-71
2023/03/23 14:20:50;;;;;;;2.17;1.30;;;;;;;;;;4941830;29;20072;-74
2023/03/23 14:23:18;;;;;;;1.23;1.10;;;;;;;;;;4941119;28;20067;-73
2023/03/23 14:25:44;;;;;;;1.38;1.27;;;;;;;;;;4941584;28;20817;-69
2023/03/23 14:28:21;;;;;;;2.72;1.20;;;;;;;;;;4941904;29;20043;-72
2023/03/23 14:30:52;;;;;;;4.20;1.30;;;;;;;;;;4943625;29;20490;-72
2023/03/23 14:33:19;;;;;;;1.80;1.30;;;;;;;;;;4941209;29;20163;-72
2023/03/23 14:35:46;;;;;;;4.15;1.00;;;;;;;;;;4941859;28;20055;-72
2023/03/23 14:38:18;;;;;;;1.67;1.30;;;;;;;;;;4942130;28;20051;-71
2023/03/23 14:40:43;;;;;;;3.08;1.25;;;;;;;;;;4943223;29;20090;-71
2023/03/23 14:43:13;;;;;;;1.63;1.30;;;;;;;;;;4941730;29;20051;-71
2023/03/23 14:45:39;;;;;;;2.28;1.25;;;;;;;;;;4941639;29;20043;-70
2023/03/23 14:48:06;;;;;;;4.00;1.52;;;;;;;;;;4940961;28;20574;-72
2023/03/23 14:50:41;;;;;;;1.85;1.20;;;;;;;;;;4941737;28;20051;-71
2023/03/23 14:53:20;;;;;;;1.42;1.15;;;;;;;;;;4942047;29;20058;-75
2023/03/23 14:55:47;;;;;;;3.83;1.40;;;;;;;;;;4942724;29;20495;-72
2023/03/23 14:58:16;;;;;;;3.08;1.02;;;;;;;;;;4940879;28;20051;-71
2023/03/23 15:00:45;;;;;;;1.35;1.25;;;;;;;;;;4942311;28;20059;-72
2023/03/23 15:03:16;;;;;;;1.75;1.10;;;;;;;;;;4941999;29;20059;-72
2023/03/23 15:06:00;;;;;;;3.78;1.38;;;;;;;;;;4943030;29;20207;-71
2023/03/23 15:08:30;;;;;;;3.65;1.10;;;;;;;;;;4942821;28;20133;-72
2023/03/23 15:11:11;;;;;;;2.35;1.23;;;;;;;;;;4946163;28;20513;-72
2023/03/23 15:13:37;;;;;;;2.10;1.50;;;;;;;;;;4919242;29;20090;-71
2023/03/23 15:16:13;;;;;;;1.98;1.50;;;;;;;;;;4943254;29;20577;-72
2023/03/23 15:18:44;;;;;;;2.10;1.35;;;;;;;;;;4943047;29;20062;-73
2023/03/23 15:21:20;;;;;;;1.30;1.20;;;;;;;;;;4942385;28;20581;-72
2023/03/23 15:23:45;;;;;;;3.80;1.10;;;;;;;;;;4942078;28;20698;-73
2023/03/23 15:26:23;;;;;;;1.83;1.45;;;;;;;;;;4936906;29;20138;-73